Pagrindinis puslapis
METAR-TAF:

METAR-TAF

Oro uostai :

Kirkenesas, Norvegija

platuma: 69-44N, ilguma: 029-54E, Aukštis: 9 m

Dabartinis oras

Ataskaita buvo paskelbta 16 minutes, ne 12:50 UTC
Vėjas 5 kt iš Rytų
Temperatūra -17°C
Drėgmė 84%
Slėgis 1002 hPa
Matomumas 10 km arba daugiau
nėra debesų žemiau 1500 m ir nėra kamuolinių lietaus debesų

METAR: ENKR 301250Z 09005KT CAVOK M17/M19 Q1002 RMK WIND 731FT VRB02KT

Laikas: 14:06 (13:06 UTC)

Prognozė

Ataskaita buvo paskelbta 2 valandos ir 6 minutes, ne 11:00 UTC
Prognozė galioja nuo 30 metu 12 UTC su 30 metu 21 UTC
Vėjas 14 kt iš Pietų
Matomumas 10 km arba daugiau
Mažai debesys ne aukštis 4000 ft
Tapsmas
nuo 30 metu 12 UTC su 30 metu 14 UTC
Vėjas 3 kt nuo kintamojo kryptimis

TAF: ENKR 301100Z 3012/3021 17014KT 9999 FEW040 BECMG 3012/3014 VRB03KT

Orai ataskaitas ir orų prognozės (METAR, TAF).

turimą stotys yra geltonos ir raudonos taškus žemėlapyje.

Perkelti pele per norėdami pamatyti stoties vardą.

Tada spustelėkite, norėdami matyti oro stebėjimo ir prognozės.

Norėdami pakeisti žemėlapį: spustelėkite ant žalios mygtukų su juodo kryžiaus žemyn,; žalią mygtuką su brūkšneliu, jei norite nutolinti; arba žalių rodyklių gretimoms žemėlapius.


METAR-TAF: